createdAt,value
2024-01-16T00:00:04.052Z,35.98
2024-01-16T00:01:04.186Z,36.02
2024-01-16T00:02:04.204Z,36.00
2024-01-16T00:03:04.201Z,35.94
2024-01-16T00:04:04.287Z,35.90
2024-01-16T00:05:04.395Z,35.90
2024-01-16T00:06:04.327Z,35.99
2024-01-16T00:07:04.488Z,35.89
2024-01-16T00:08:04.432Z,35.94
2024-01-16T00:09:04.482Z,35.96
2024-01-16T00:10:04.519Z,35.88
2024-01-16T00:11:04.712Z,35.86
2024-01-16T00:12:04.579Z,35.91
2024-01-16T00:13:04.624Z,35.90
2024-01-16T00:14:04.712Z,35.87
2024-01-16T00:15:04.706Z,35.88
2024-01-16T00:16:04.709Z,35.84
2024-01-16T00:17:04.771Z,35.87
2024-01-16T00:18:04.900Z,35.84
2024-01-16T00:19:04.937Z,35.85
2024-01-16T00:20:04.866Z,35.79
2024-01-16T00:21:04.887Z,35.82
2024-01-16T00:22:04.933Z,35.69
2024-01-16T00:23:04.982Z,35.72
2024-01-16T00:24:05.030Z,35.69
2024-01-16T00:25:05.889Z,35.68
2024-01-16T00:26:05.161Z,35.75
2024-01-16T00:27:07.421Z,35.69
2024-01-16T00:28:05.137Z,35.70
2024-01-16T00:29:05.197Z,35.73
2024-01-16T00:30:05.161Z,35.69
2024-01-16T00:31:05.152Z,35.74
2024-01-16T00:32:05.201Z,35.77
2024-01-16T00:33:05.308Z,35.72
2024-01-16T00:34:05.241Z,35.71
2024-01-16T00:35:05.206Z,35.72
2024-01-16T00:36:05.160Z,35.73
2024-01-16T00:37:05.159Z,35.65
2024-01-16T00:38:05.176Z,35.68
2024-01-16T00:39:05.714Z,35.67
2024-01-16T00:40:05.170Z,35.61
2024-01-16T00:41:05.223Z,35.69
2024-01-16T00:42:05.168Z,35.68
2024-01-16T00:43:05.187Z,35.64
2024-01-16T00:44:05.214Z,35.63
2024-01-16T00:45:05.186Z,35.67
2024-01-16T00:46:05.189Z,35.65
2024-01-16T00:47:05.223Z,35.59
2024-01-16T00:48:05.336Z,35.67
2024-01-16T00:49:05.282Z,35.68
2024-01-16T00:50:05.246Z,35.72
2024-01-16T00:51:05.189Z,35.54
2024-01-16T00:52:05.211Z,35.64
2024-01-16T00:53:05.216Z,35.67
2024-01-16T00:54:05.198Z,35.67
2024-01-16T00:55:05.197Z,35.62
2024-01-16T00:56:05.237Z,35.54
2024-01-16T00:57:05.197Z,35.56
2024-01-16T00:58:05.209Z,35.54
2024-01-16T00:59:05.223Z,35.56
2024-01-16T01:00:05.222Z,35.57
2024-01-16T01:01:05.259Z,35.61
2024-01-16T01:02:05.282Z,35.49
2024-01-16T01:03:05.210Z,35.59
2024-01-16T01:04:05.288Z,35.57
2024-01-16T01:05:05.277Z,35.52
2024-01-16T01:06:05.297Z,35.62
2024-01-16T01:07:05.228Z,35.56
2024-01-16T01:08:05.263Z,35.52
2024-01-16T01:09:05.221Z,35.50
2024-01-16T01:10:05.250Z,35.46
2024-01-16T01:11:05.258Z,35.50
2024-01-16T01:12:05.248Z,35.53
2024-01-16T01:13:05.238Z,35.62
2024-01-16T01:14:05.366Z,35.54
2024-01-16T01:15:05.324Z,35.47
2024-01-16T01:16:05.248Z,35.51
2024-01-16T01:17:05.305Z,35.42
2024-01-16T01:18:05.735Z,35.54
2024-01-16T01:19:05.358Z,35.51
2024-01-16T01:20:05.309Z,35.45
2024-01-16T01:21:05.276Z,35.37
2024-01-16T01:22:05.313Z,35.44
2024-01-16T01:23:05.416Z,35.41
2024-01-16T01:24:05.379Z,35.46
2024-01-16T01:25:05.367Z,35.45
2024-01-16T01:26:05.434Z,35.41
2024-01-16T01:27:05.421Z,35.48
2024-01-16T01:28:05.435Z,35.43
2024-01-16T01:29:05.507Z,35.42
2024-01-16T01:30:05.575Z,35.50
2024-01-16T01:31:05.589Z,35.51
2024-01-16T01:32:05.606Z,35.47
2024-01-16T01:33:05.707Z,35.37
2024-01-16T01:34:05.744Z,35.42
2024-01-16T01:35:05.731Z,35.33
2024-01-16T01:36:09.464Z,35.33
2024-01-16T01:37:05.728Z,35.39
2024-01-16T01:38:05.770Z,35.48
2024-01-16T01:39:05.743Z,35.46
2024-01-16T01:40:05.750Z,35.34
2024-01-16T01:41:08.568Z,35.36
2024-01-16T01:42:05.722Z,35.37
2024-01-16T01:43:05.737Z,35.40
2024-01-16T01:44:05.793Z,35.41
2024-01-16T01:45:05.750Z,35.40
2024-01-16T01:46:05.746Z,35.32
2024-01-16T01:47:05.805Z,35.43
2024-01-16T01:48:05.873Z,35.34
2024-01-16T01:49:05.810Z,35.29
2024-01-16T01:50:05.777Z,35.36
2024-01-16T01:51:05.761Z,35.31
2024-01-16T01:52:05.757Z,35.40
2024-01-16T01:53:05.772Z,35.19
2024-01-16T01:54:05.793Z,35.26
2024-01-16T01:55:05.757Z,35.31
2024-01-16T01:56:05.792Z,35.25
2024-01-16T01:57:05.758Z,35.27
2024-01-16T01:58:05.775Z,35.29
2024-01-16T01:59:05.777Z,35.32
2024-01-16T02:00:05.770Z,35.22
2024-01-16T02:01:05.813Z,35.30
2024-01-16T02:02:05.816Z,35.24
2024-01-16T02:03:05.779Z,35.19
2024-01-16T02:04:05.775Z,35.18
2024-01-16T02:05:05.852Z,35.32
2024-01-16T02:06:05.927Z,35.20
2024-01-16T02:07:05.768Z,35.21
2024-01-16T02:08:05.789Z,35.21
2024-01-16T02:09:05.791Z,35.34
2024-01-16T02:10:06.448Z,35.20
2024-01-16T02:11:05.791Z,35.27
2024-01-16T02:12:05.784Z,35.26
2024-01-16T02:13:05.775Z,35.27
2024-01-16T02:14:05.807Z,35.19
2024-01-16T02:15:05.809Z,35.19
2024-01-16T02:16:05.784Z,35.24
2024-01-16T02:17:05.836Z,35.16
2024-01-16T02:18:05.906Z,35.22
2024-01-16T02:19:11.844Z,35.22
2024-01-16T02:20:05.853Z,35.28
2024-01-16T02:21:05.793Z,35.27
2024-01-16T02:22:05.819Z,35.11
2024-01-16T02:23:05.866Z,35.21
2024-01-16T02:24:05.788Z,35.32
2024-01-16T02:25:05.790Z,35.18
2024-01-16T02:26:05.838Z,35.19
2024-01-16T02:27:05.808Z,35.25
2024-01-16T02:28:05.790Z,35.20
2024-01-16T02:29:05.857Z,35.20
2024-01-16T02:30:05.818Z,35.21
2024-01-16T02:31:05.831Z,35.16
2024-01-16T02:32:05.857Z,35.19
2024-01-16T02:33:05.952Z,35.19
2024-01-16T02:34:05.977Z,35.11
2024-01-16T02:35:05.860Z,35.16
2024-01-16T02:36:05.804Z,35.13
2024-01-16T02:37:05.807Z,35.09
2024-01-16T02:38:05.824Z,35.24
2024-01-16T02:39:05.815Z,35.18
2024-01-16T02:40:05.832Z,35.16
2024-01-16T02:41:05.865Z,35.24
2024-01-16T02:42:05.822Z,35.24
2024-01-16T02:43:05.821Z,35.25
2024-01-16T02:44:05.841Z,35.21
2024-01-16T02:45:05.822Z,35.22
2024-01-16T02:46:05.841Z,35.09
2024-01-16T02:47:05.890Z,35.06
2024-01-16T02:48:05.918Z,35.04
2024-01-16T02:49:05.845Z,35.15
2024-01-16T02:50:05.958Z,35.21
2024-01-16T02:51:05.843Z,35.07
2024-01-16T02:52:05.850Z,35.20
2024-01-16T02:53:05.908Z,35.10
2024-01-16T02:54:05.876Z,35.22
2024-01-16T02:55:05.844Z,35.13
2024-01-16T02:56:05.916Z,35.12
2024-01-16T02:57:05.915Z,35.17
2024-01-16T02:58:05.857Z,35.08
2024-01-16T02:59:11.906Z,35.15
2024-01-16T03:00:05.891Z,35.13
2024-01-16T03:01:05.931Z,35.11
2024-01-16T03:02:05.908Z,35.18
2024-01-16T03:03:05.918Z,35.12
2024-01-16T03:04:05.871Z,35.09
2024-01-16T03:05:05.948Z,35.12
2024-01-16T03:06:06.006Z,35.10
2024-01-16T03:07:05.901Z,35.13
2024-01-16T03:08:05.912Z,35.10
2024-01-16T03:09:05.882Z,34.99
2024-01-16T03:10:05.885Z,35.10
2024-01-16T03:11:05.920Z,35.08
2024-01-16T03:12:05.897Z,35.07
2024-01-16T03:13:05.881Z,35.03
2024-01-16T03:14:05.931Z,35.14
2024-01-16T03:15:05.895Z,35.12
2024-01-16T03:16:05.914Z,35.17
2024-01-16T03:17:05.932Z,35.09
2024-01-16T03:18:05.974Z,35.03
2024-01-16T03:19:05.912Z,35.04
2024-01-16T03:20:05.920Z,35.06
2024-01-16T03:21:05.903Z,35.09
2024-01-16T03:22:05.909Z,35.10
2024-01-16T03:23:05.933Z,35.09
2024-01-16T03:24:05.915Z,35.09
2024-01-16T03:25:05.936Z,35.17
2024-01-16T03:26:05.968Z,35.07
2024-01-16T03:27:05.909Z,35.12
2024-01-16T03:28:05.922Z,35.11
2024-01-16T03:29:05.936Z,35.07
2024-01-16T03:30:05.983Z,35.14
2024-01-16T03:31:05.977Z,35.09
2024-01-16T03:32:05.926Z,35.09
2024-01-16T03:33:05.971Z,35.08
2024-01-16T03:34:05.999Z,35.07
2024-01-16T03:35:05.969Z,35.17
2024-01-16T03:36:05.925Z,35.09
2024-01-16T03:37:05.924Z,35.10
2024-01-16T03:38:05.954Z,35.03
2024-01-16T03:39:05.922Z,35.03
2024-01-16T03:40:05.933Z,35.07
2024-01-16T03:41:05.978Z,35.08
2024-01-16T03:42:05.937Z,35.05
2024-01-16T03:43:05.962Z,35.07
2024-01-16T03:44:05.941Z,35.04
2024-01-16T03:45:05.934Z,35.02
2024-01-16T03:46:05.930Z,35.14
2024-01-16T03:47:05.944Z,35.07
2024-01-16T03:48:06.376Z,35.12
2024-01-16T03:49:06.007Z,35.03
2024-01-16T03:50:05.970Z,35.04
2024-01-16T03:51:05.948Z,35.07
2024-01-16T03:52:05.957Z,35.16
2024-01-16T03:53:06.042Z,35.01
2024-01-16T03:54:05.993Z,35.03
2024-01-16T03:55:05.943Z,35.02
2024-01-16T03:56:05.973Z,35.10
2024-01-16T03:57:05.948Z,35.06
2024-01-16T03:58:05.971Z,35.01
2024-01-16T03:59:05.983Z,35.11
2024-01-16T04:00:05.989Z,35.05
2024-01-16T04:01:05.983Z,35.09
2024-01-16T04:02:06.058Z,35.05
2024-01-16T04:03:05.977Z,35.00
2024-01-16T04:04:06.000Z,35.00
2024-01-16T04:05:06.038Z,35.03
2024-01-16T04:06:06.115Z,35.06
2024-01-16T04:07:06.014Z,35.04
2024-01-16T04:08:06.004Z,35.11
2024-01-16T04:09:05.957Z,35.02
2024-01-16T04:10:05.969Z,35.03
2024-01-16T04:11:06.001Z,35.04
2024-01-16T04:12:05.977Z,35.02
2024-01-16T04:13:05.970Z,35.07
2024-01-16T04:14:06.037Z,35.09
2024-01-16T04:15:05.985Z,34.94
2024-01-16T04:16:05.974Z,35.01
2024-01-16T04:17:06.039Z,35.01
2024-01-16T04:18:06.077Z,35.04
2024-01-16T04:19:06.117Z,34.97
2024-01-16T04:20:06.158Z,35.00
2024-01-16T04:21:06.156Z,34.93
2024-01-16T04:22:06.253Z,34.99
2024-01-16T04:23:06.225Z,35.07
2024-01-16T04:24:06.228Z,35.13
2024-01-16T04:25:06.243Z,35.00
2024-01-16T04:26:06.361Z,35.02
2024-01-16T04:27:06.407Z,35.00
2024-01-16T04:28:06.370Z,35.01
2024-01-16T04:29:06.514Z,35.04
2024-01-16T04:30:06.503Z,34.95
2024-01-16T04:31:06.531Z,34.91
2024-01-16T04:32:06.684Z,34.99
2024-01-16T04:33:06.702Z,35.02
2024-01-16T04:34:06.713Z,34.99
2024-01-16T04:35:06.743Z,34.98
2024-01-16T04:36:06.702Z,35.00
2024-01-16T04:37:06.766Z,34.99
2024-01-16T04:38:06.820Z,34.99
2024-01-16T04:39:06.835Z,34.95
2024-01-16T04:40:06.882Z,35.03
2024-01-16T04:41:06.943Z,35.01
2024-01-16T04:42:06.964Z,34.99
2024-01-16T04:43:07.022Z,35.05
2024-01-16T04:44:07.065Z,35.04
2024-01-16T04:45:07.104Z,35.08
2024-01-16T04:46:07.146Z,35.11
2024-01-16T04:47:07.218Z,35.07
2024-01-16T04:48:07.401Z,35.01
2024-01-16T04:49:07.295Z,35.07
2024-01-16T04:50:14.629Z,35.01
2024-01-16T04:51:14.581Z,34.98
2024-01-16T04:52:14.591Z,35.02
2024-01-16T04:53:14.613Z,35.02
2024-01-16T04:54:14.580Z,34.98
2024-01-16T04:55:14.605Z,34.96
2024-01-16T04:56:14.656Z,35.01
2024-01-16T04:57:14.595Z,34.98
2024-01-16T04:58:14.592Z,34.99
2024-01-16T04:59:16.839Z,34.99
2024-01-16T05:00:14.665Z,34.96
2024-01-16T05:01:14.714Z,34.92
2024-01-16T05:02:14.754Z,34.91
2024-01-16T05:03:14.854Z,34.98
2024-01-16T05:04:14.894Z,35.02
2024-01-16T05:05:14.947Z,34.97
2024-01-16T05:06:14.955Z,35.05
2024-01-16T05:07:14.950Z,35.03
2024-01-16T05:08:15.096Z,34.94
2024-01-16T05:09:15.044Z,34.96
2024-01-16T05:10:15.097Z,34.94
2024-01-16T05:11:15.169Z,34.90
2024-01-16T05:12:15.180Z,34.90
2024-01-16T05:13:15.222Z,34.93
2024-01-16T05:14:15.298Z,34.92
2024-01-16T05:15:15.333Z,34.89
2024-01-16T05:16:15.392Z,34.91
2024-01-16T05:17:15.435Z,34.83
2024-01-16T05:18:15.546Z,34.97
2024-01-16T05:19:15.553Z,34.85
2024-01-16T05:20:15.595Z,34.90
2024-01-16T05:21:15.618Z,34.86
2024-01-16T05:22:15.666Z,34.80
2024-01-16T05:23:15.776Z,34.84
2024-01-16T05:24:17.001Z,34.83
2024-01-16T05:25:15.781Z,34.79
2024-01-16T05:26:15.816Z,34.85
2024-01-16T05:27:15.837Z,34.78
2024-01-16T05:28:15.864Z,34.83
2024-01-16T05:29:15.958Z,34.90
2024-01-16T05:30:16.033Z,34.93
2024-01-16T05:31:15.987Z,34.88
2024-01-16T05:32:16.046Z,34.88
2024-01-16T05:33:16.231Z,34.94
2024-01-16T05:34:16.171Z,34.79
2024-01-16T05:35:16.216Z,34.80
2024-01-16T05:36:16.182Z,34.80
2024-01-16T05:37:16.205Z,34.78
2024-01-16T05:38:16.338Z,34.80
2024-01-16T05:39:16.293Z,34.90
2024-01-16T05:40:16.364Z,34.77
2024-01-16T05:41:16.452Z,34.81
2024-01-16T05:42:16.486Z,34.78
2024-01-16T05:43:16.524Z,34.81
2024-01-16T05:44:16.618Z,34.84
2024-01-16T05:45:16.608Z,34.72
2024-01-16T05:46:16.683Z,34.75
2024-01-16T05:47:16.736Z,34.82
2024-01-16T05:48:16.911Z,34.77
2024-01-16T05:49:16.849Z,34.79
2024-01-16T05:50:16.957Z,34.80
2024-01-16T05:51:16.977Z,34.86
2024-01-16T05:52:16.987Z,34.84
2024-01-16T05:53:17.050Z,34.87
2024-01-16T05:54:17.132Z,34.80
2024-01-16T05:55:17.156Z,34.73
2024-01-16T05:56:17.235Z,34.71
2024-01-16T05:57:17.254Z,34.75
2024-01-16T05:58:17.294Z,34.86
2024-01-16T05:59:17.370Z,34.79
2024-01-16T06:00:17.416Z,34.84
2024-01-16T06:01:17.480Z,34.84
2024-01-16T06:02:17.574Z,34.84
2024-01-16T06:03:17.583Z,34.79
2024-01-16T06:04:17.655Z,34.80
2024-01-16T06:05:17.686Z,34.79
2024-01-16T06:06:17.875Z,34.71
2024-01-16T06:07:17.691Z,34.77
2024-01-16T06:08:17.821Z,34.70
2024-01-16T06:09:17.823Z,34.81
2024-01-16T06:10:17.857Z,34.77
2024-01-16T06:11:17.916Z,34.80
2024-01-16T06:12:17.945Z,34.88
2024-01-16T06:13:17.982Z,34.78
2024-01-16T06:14:19.997Z,34.76
2024-01-16T06:15:18.039Z,34.78
2024-01-16T06:16:18.035Z,34.75
2024-01-16T06:17:18.109Z,34.78
2024-01-16T06:18:18.133Z,34.74
2024-01-16T06:19:18.122Z,34.72
2024-01-16T06:20:18.105Z,34.82
2024-01-16T06:21:18.670Z,34.76
2024-01-16T06:22:18.050Z,34.83
2024-01-16T06:23:18.061Z,34.80
2024-01-16T06:24:18.047Z,34.80
2024-01-16T06:25:18.055Z,34.80
2024-01-16T06:26:18.120Z,34.91
2024-01-16T06:27:18.059Z,34.77
2024-01-16T06:28:18.057Z,34.76
2024-01-16T06:29:24.942Z,34.89
2024-01-16T06:30:19.237Z,34.75
2024-01-16T06:31:18.111Z,34.83
2024-01-16T06:32:18.174Z,34.73
2024-01-16T06:33:18.234Z,34.84
2024-01-16T06:34:18.188Z,34.80
2024-01-16T06:35:18.124Z,34.76
2024-01-16T06:36:18.098Z,34.77
2024-01-16T06:37:18.121Z,34.79
2024-01-16T06:38:18.125Z,34.77
2024-01-16T06:39:18.141Z,34.77
2024-01-16T06:40:18.133Z,34.69
2024-01-16T06:41:18.226Z,34.86
2024-01-16T06:42:18.245Z,34.73
2024-01-16T06:43:18.347Z,34.78
2024-01-16T06:44:18.387Z,34.81
2024-01-16T06:45:18.415Z,34.85
2024-01-16T06:46:18.479Z,34.85
2024-01-16T06:47:18.557Z,34.75
2024-01-16T06:48:18.765Z,34.76
2024-01-16T06:49:18.680Z,34.82
2024-01-16T06:50:18.652Z,34.77
2024-01-16T06:51:18.657Z,34.75
2024-01-16T06:52:18.708Z,34.73
2024-01-16T06:53:18.764Z,34.76
2024-01-16T06:54:18.837Z,34.69
2024-01-16T06:55:18.896Z,34.77
2024-01-16T06:56:18.925Z,34.72
2024-01-16T06:57:19.034Z,34.70
2024-01-16T06:58:19.044Z,34.71
2024-01-16T06:59:19.113Z,34.87
2024-01-16T07:00:19.149Z,34.80
2024-01-16T07:01:19.272Z,34.74
2024-01-16T07:02:19.313Z,34.68
2024-01-16T07:03:19.346Z,34.62
2024-01-16T07:04:19.484Z,34.67
2024-01-16T07:05:19.511Z,34.74
2024-01-16T07:06:19.598Z,34.69
2024-01-16T07:07:19.596Z,34.68
2024-01-16T07:08:19.627Z,34.54
2024-01-16T07:09:19.660Z,34.68
2024-01-16T07:10:19.926Z,34.59
2024-01-16T07:11:20.224Z,34.64
2024-01-16T07:12:19.866Z,34.68
2024-01-16T07:13:19.933Z,34.69
2024-01-16T07:14:20.086Z,34.65
2024-01-16T07:15:20.063Z,34.75
2024-01-16T07:16:20.118Z,34.79
2024-01-16T07:17:20.154Z,34.86
2024-01-16T07:18:20.287Z,34.88
2024-01-16T07:19:20.216Z,34.89
2024-01-16T07:20:20.308Z,34.74
2024-01-16T07:21:20.324Z,34.66
2024-01-16T07:22:20.356Z,34.61
2024-01-16T07:23:20.416Z,34.54
2024-01-16T07:24:20.480Z,34.55
2024-01-16T07:25:20.520Z,34.55
2024-01-16T07:26:20.615Z,34.54
2024-01-16T07:27:20.616Z,34.53
2024-01-16T07:28:20.679Z,34.54
2024-01-16T07:29:20.768Z,34.54
2024-01-16T07:30:20.846Z,34.54
2024-01-16T07:31:20.864Z,34.51
2024-01-16T07:32:20.934Z,34.56
2024-01-16T07:33:21.099Z,34.48
2024-01-16T07:34:21.227Z,34.47
2024-01-16T07:35:21.151Z,34.50
2024-01-16T07:36:21.148Z,34.50
2024-01-16T07:37:21.200Z,34.42
2024-01-16T07:38:21.347Z,34.45
2024-01-16T07:39:21.333Z,34.54
2024-01-16T07:40:21.389Z,34.44
2024-01-16T07:41:21.461Z,34.43
2024-01-16T07:42:21.522Z,34.44
2024-01-16T07:43:21.579Z,34.40
2024-01-16T07:44:21.647Z,34.43
2024-01-16T07:45:21.680Z,34.38
2024-01-16T07:46:21.737Z,34.37
2024-01-16T07:47:21.806Z,34.54
2024-01-16T07:48:21.975Z,34.67
2024-01-16T07:49:21.956Z,34.45
2024-01-16T07:50:22.012Z,34.43
2024-01-16T07:51:22.005Z,34.48
2024-01-16T07:52:22.044Z,34.53
2024-01-16T07:53:22.105Z,34.43
2024-01-16T07:54:22.139Z,34.46
2024-01-16T07:55:25.148Z,34.40
2024-01-16T07:56:22.294Z,34.40
2024-01-16T07:57:22.189Z,34.44
2024-01-16T07:58:22.205Z,34.44
2024-01-16T07:59:22.425Z,34.82
2024-01-16T08:00:22.345Z,34.93
2024-01-16T08:01:22.420Z,34.80
2024-01-16T08:02:24.822Z,34.76
2024-01-16T08:03:22.322Z,34.77
2024-01-16T08:04:22.261Z,34.67
2024-01-16T08:05:22.328Z,34.59
2024-01-16T08:06:22.308Z,34.46
2024-01-16T08:07:22.209Z,34.47
2024-01-16T08:08:22.244Z,34.40
2024-01-16T08:09:22.274Z,34.35
2024-01-16T08:10:22.245Z,34.35
2024-01-16T08:11:22.242Z,34.34
2024-01-16T08:12:22.250Z,34.25
2024-01-16T08:13:22.228Z,34.31
2024-01-16T08:14:22.245Z,34.25
2024-01-16T08:15:22.243Z,34.33
2024-01-16T08:16:22.249Z,34.29
2024-01-16T08:17:22.270Z,34.16
2024-01-16T08:18:22.406Z,34.09
2024-01-16T08:19:22.352Z,34.11
2024-01-16T08:20:22.296Z,34.00
2024-01-16T08:21:22.273Z,34.04
2024-01-16T08:22:22.267Z,34.10
2024-01-16T08:23:22.397Z,34.04
2024-01-16T08:24:22.269Z,34.01
2024-01-16T08:25:22.271Z,33.92
2024-01-16T08:26:22.284Z,33.86
2024-01-16T08:27:22.261Z,34.01
2024-01-16T08:28:23.802Z,33.82
2024-01-16T08:29:22.255Z,33.81
2024-01-16T08:30:22.357Z,33.91
2024-01-16T08:31:22.287Z,33.79
2024-01-16T08:32:22.365Z,33.79
2024-01-16T08:33:30.954Z,33.81
2024-01-16T08:34:23.466Z,33.85
2024-01-16T08:35:22.535Z,33.77
2024-01-16T08:36:22.320Z,33.71
2024-01-16T08:37:22.276Z,33.66
2024-01-16T08:38:22.318Z,33.69
2024-01-16T08:39:22.279Z,33.75
2024-01-16T08:40:22.286Z,33.71
2024-01-16T08:41:22.298Z,33.83
2024-01-16T08:42:22.297Z,33.72
2024-01-16T08:43:22.331Z,33.63
2024-01-16T08:44:22.390Z,33.63
2024-01-16T08:45:22.393Z,33.56
2024-01-16T08:46:22.290Z,33.99
2024-01-16T08:47:22.355Z,34.15
2024-01-16T08:48:22.530Z,34.05
2024-01-16T08:49:22.351Z,33.94
2024-01-16T08:50:22.350Z,34.37
2024-01-16T08:51:22.311Z,34.55
2024-01-16T08:52:22.410Z,34.56
2024-01-16T08:53:22.459Z,34.62
2024-01-16T08:54:22.460Z,34.63
2024-01-16T08:55:22.512Z,34.56
2024-01-16T08:56:22.675Z,35.80
2024-01-16T08:57:24.777Z,36.00
2024-01-16T08:58:22.593Z,35.92
2024-01-16T08:59:22.636Z,35.98
2024-01-16T09:00:22.594Z,36.38
2024-01-16T09:01:22.640Z,36.04
2024-01-16T09:02:22.638Z,36.09
2024-01-16T09:03:22.606Z,36.08
2024-01-16T09:04:22.750Z,36.51
2024-01-16T09:05:22.641Z,36.53
2024-01-16T09:06:22.732Z,36.47
2024-01-16T09:07:22.788Z,36.78
2024-01-16T09:08:22.622Z,36.37
2024-01-16T09:09:22.606Z,36.40
2024-01-16T09:10:22.623Z,36.70
2024-01-16T09:11:22.639Z,37.00
2024-01-16T09:12:22.608Z,36.85
2024-01-16T09:13:22.606Z,37.37
2024-01-16T09:14:22.656Z,36.96
2024-01-16T09:15:22.610Z,36.82
2024-01-16T09:16:22.615Z,37.17
2024-01-16T09:17:22.617Z,37.08
2024-01-16T09:18:22.870Z,37.16
2024-01-16T09:19:22.845Z,37.39
2024-01-16T09:20:22.653Z,37.67
2024-01-16T09:21:22.633Z,37.58
2024-01-16T09:22:22.624Z,37.67
2024-01-16T09:23:22.637Z,37.29
2024-01-16T09:24:22.647Z,37.44
2024-01-16T09:25:22.607Z,37.81
2024-01-16T09:26:22.672Z,37.99
2024-01-16T09:27:22.626Z,38.28
2024-01-16T09:28:22.643Z,37.74
2024-01-16T09:29:22.648Z,38.01
2024-01-16T09:30:22.627Z,37.25
2024-01-16T09:31:22.654Z,37.46
2024-01-16T09:32:22.697Z,37.46
2024-01-16T09:33:22.743Z,37.38
2024-01-16T09:34:22.678Z,37.48
2024-01-16T09:35:22.637Z,37.49
2024-01-16T09:36:22.651Z,37.56
2024-01-16T09:37:22.620Z,37.84
2024-01-16T09:38:23.657Z,37.81
2024-01-16T09:39:22.635Z,38.23
2024-01-16T09:40:22.650Z,37.96
2024-01-16T09:41:22.690Z,38.29
2024-01-16T09:42:22.645Z,38.21
2024-01-16T09:43:22.698Z,38.41
2024-01-16T09:44:22.754Z,38.24
2024-01-16T09:45:22.831Z,38.32
2024-01-16T09:46:22.891Z,38.27
2024-01-16T09:47:22.971Z,38.24
2024-01-16T09:48:23.050Z,38.43
2024-01-16T09:49:23.116Z,38.12
2024-01-16T09:50:23.147Z,38.26
2024-01-16T09:51:23.168Z,38.86
2024-01-16T09:52:23.214Z,38.95
2024-01-16T09:53:23.294Z,38.60
2024-01-16T09:54:23.275Z,38.37
2024-01-16T09:55:23.305Z,38.34
2024-01-16T09:56:23.401Z,38.41
2024-01-16T09:57:23.423Z,38.42
2024-01-16T09:58:25.931Z,38.78
2024-01-16T09:59:23.542Z,38.95
2024-01-16T10:00:23.449Z,39.09
2024-01-16T10:01:23.466Z,38.97
2024-01-16T10:02:23.512Z,38.96
2024-01-16T10:03:23.460Z,38.86
2024-01-16T10:04:23.502Z,38.87
2024-01-16T10:05:23.547Z,38.62
2024-01-16T10:06:23.538Z,38.88
2024-01-16T10:07:23.682Z,38.37
2024-01-16T10:08:23.529Z,38.89
2024-01-16T10:09:23.466Z,39.19
2024-01-16T10:10:30.545Z,39.25
2024-01-16T10:11:24.505Z,38.55
2024-01-16T10:12:23.519Z,38.50
2024-01-16T10:13:23.507Z,38.41
2024-01-16T10:14:23.550Z,38.42
2024-01-16T10:15:23.544Z,38.42
2024-01-16T10:16:26.010Z,38.53
2024-01-16T10:17:23.542Z,38.77
2024-01-16T10:18:23.722Z,38.97
2024-01-16T10:19:32.035Z,39.09
2024-01-16T10:20:24.528Z,38.92
2024-01-16T10:21:23.653Z,39.07
2024-01-16T10:22:25.719Z,39.23
2024-01-16T10:23:23.503Z,39.37
2024-01-16T10:24:23.498Z,39.21
2024-01-16T10:25:23.517Z,39.04
2024-01-16T10:26:23.566Z,39.07
2024-01-16T10:27:23.503Z,38.40
2024-01-16T10:28:25.672Z,38.27
2024-01-16T10:29:25.736Z,38.28
2024-01-16T10:30:24.740Z,38.52
2024-01-16T10:31:23.638Z,38.73
2024-01-16T10:32:23.593Z,38.78
2024-01-16T10:33:23.584Z,38.91
2024-01-16T10:34:23.863Z,39.19
2024-01-16T10:35:23.649Z,39.00
2024-01-16T10:36:23.524Z,39.34
2024-01-16T10:37:23.523Z,39.48
2024-01-16T10:38:23.732Z,39.47
2024-01-16T10:39:27.438Z,39.66
2024-01-16T10:40:26.671Z,39.52
2024-01-16T10:41:23.576Z,39.58
2024-01-16T10:42:23.535Z,39.75
2024-01-16T10:43:23.540Z,39.71
2024-01-16T10:44:23.550Z,39.86
2024-01-16T10:45:23.561Z,39.75
2024-01-16T10:46:24.629Z,38.83
2024-01-16T10:47:23.614Z,38.35
2024-01-16T10:48:23.645Z,38.91
2024-01-16T10:49:25.085Z,38.61
2024-01-16T10:50:23.577Z,38.84
2024-01-16T10:51:23.587Z,38.83
2024-01-16T10:52:24.328Z,38.89
2024-01-16T10:53:23.645Z,39.06
2024-01-16T10:54:23.602Z,38.87
2024-01-16T10:55:23.627Z,38.84
2024-01-16T10:56:23.676Z,39.46
2024-01-16T10:57:23.719Z,39.62
2024-01-16T10:58:23.726Z,39.60
2024-01-16T10:59:23.823Z,39.42
2024-01-16T11:00:23.765Z,39.12
2024-01-16T11:01:23.801Z,39.09
2024-01-16T11:02:23.886Z,39.06
2024-01-16T11:03:24.883Z,39.17
2024-01-16T11:04:23.944Z,39.35
2024-01-16T11:05:26.476Z,39.18
2024-01-16T11:06:23.881Z,39.24
2024-01-16T11:07:23.863Z,39.24
2024-01-16T11:08:23.928Z,39.35
2024-01-16T11:09:23.884Z,39.45
2024-01-16T11:10:23.863Z,39.50
2024-01-16T11:11:24.042Z,39.61
2024-01-16T11:12:23.851Z,39.46
2024-01-16T11:13:23.854Z,39.56
2024-01-16T11:14:24.630Z,39.46
2024-01-16T11:15:23.865Z,39.47
2024-01-16T11:16:23.873Z,39.60
2024-01-16T11:17:23.933Z,39.71
2024-01-16T11:18:24.082Z,39.55
2024-01-16T11:19:38.224Z,39.71
2024-01-16T11:20:38.786Z,39.70
2024-01-16T11:21:25.015Z,39.68
2024-01-16T11:22:24.019Z,39.63
2024-01-16T11:23:23.955Z,39.77
2024-01-16T11:24:23.880Z,39.89
2024-01-16T11:25:23.905Z,40.01
2024-01-16T11:26:24.858Z,39.83
2024-01-16T11:27:23.927Z,39.74
2024-01-16T11:28:23.935Z,39.85
2024-01-16T11:29:23.919Z,39.94
2024-01-16T11:30:23.981Z,40.00
2024-01-16T11:31:23.912Z,40.03
2024-01-16T11:32:30.147Z,40.30
2024-01-16T11:33:25.082Z,40.15
2024-01-16T11:34:24.082Z,40.28
2024-01-16T11:35:24.012Z,40.08
2024-01-16T11:36:23.946Z,40.16
2024-01-16T11:37:23.950Z,40.22
2024-01-16T11:38:23.941Z,40.21
2024-01-16T11:39:23.940Z,40.34
2024-01-16T11:40:23.947Z,40.64
2024-01-16T11:41:32.958Z,40.65
2024-01-16T11:42:25.051Z,40.44
2024-01-16T11:43:24.054Z,40.32
2024-01-16T11:44:24.753Z,40.24
2024-01-16T11:45:24.000Z,40.41
2024-01-16T11:46:24.050Z,40.40
2024-01-16T11:47:24.244Z,40.33
2024-01-16T11:48:24.259Z,40.31
2024-01-16T11:49:24.140Z,40.22
2024-01-16T11:50:24.334Z,40.33
2024-01-16T11:51:24.163Z,40.32
2024-01-16T11:52:24.132Z,40.32
2024-01-16T11:53:24.197Z,40.28
2024-01-16T11:54:24.183Z,40.17
2024-01-16T11:55:24.208Z,40.16
2024-01-16T11:56:34.271Z,40.15
2024-01-16T11:57:25.303Z,40.17
2024-01-16T11:58:24.228Z,40.15
2024-01-16T11:59:24.249Z,40.13
2024-01-16T12:00:24.238Z,40.15
2024-01-16T12:01:24.326Z,40.14
2024-01-16T12:02:24.256Z,40.08
2024-01-16T12:03:31.811Z,40.15
2024-01-16T12:04:25.240Z,40.13
2024-01-16T12:05:24.393Z,40.09
2024-01-16T12:06:24.343Z,40.12
2024-01-16T12:07:24.425Z,40.14
2024-01-16T12:08:24.265Z,40.11
2024-01-16T12:09:24.276Z,40.09
2024-01-16T12:10:24.289Z,40.18
2024-01-16T12:11:30.274Z,40.13
2024-01-16T12:12:25.324Z,40.05
2024-01-16T12:13:24.264Z,39.98
2024-01-16T12:14:24.307Z,40.05
2024-01-16T12:15:24.283Z,40.02
2024-01-16T12:16:24.262Z,40.14
2024-01-16T12:17:24.386Z,40.02
2024-01-16T12:18:33.925Z,40.14
2024-01-16T12:19:25.393Z,40.05
2024-01-16T12:20:24.526Z,39.93
2024-01-16T12:21:24.303Z,40.03
2024-01-16T12:22:24.292Z,40.01
2024-01-16T12:23:24.365Z,40.04
2024-01-16T12:24:24.312Z,39.91
2024-01-16T12:25:24.307Z,40.04
2024-01-16T12:26:24.727Z,40.01
2024-01-16T12:27:24.295Z,39.87
2024-01-16T12:28:31.727Z,40.05
2024-01-16T12:29:25.334Z,40.01
2024-01-16T12:30:24.339Z,39.88
2024-01-16T12:31:24.368Z,40.04
2024-01-16T12:32:24.393Z,40.03
2024-01-16T12:33:24.439Z,39.96
2024-01-16T12:34:24.454Z,39.87
2024-01-16T12:35:24.418Z,39.83
2024-01-16T12:36:24.859Z,39.94
2024-01-16T12:37:24.336Z,39.96
2024-01-16T12:38:24.355Z,39.86
2024-01-16T12:39:24.370Z,39.79
2024-01-16T12:40:24.436Z,39.93
2024-01-16T12:41:32.404Z,39.84
2024-01-16T12:42:25.902Z,39.89
2024-01-16T12:43:24.529Z,39.83
2024-01-16T12:44:24.552Z,39.83
2024-01-16T12:45:24.609Z,39.72
2024-01-16T12:46:24.513Z,39.86
2024-01-16T12:47:24.636Z,39.95
2024-01-16T12:48:24.772Z,39.91
2024-01-16T12:49:24.768Z,39.89
2024-01-16T12:50:24.623Z,39.76
2024-01-16T12:51:24.555Z,39.90
2024-01-16T12:52:24.523Z,39.75